sensor_id;sensor_type;location;lat;lon;timestamp;temperature;humidity
35445;DHT22;21562;49.476;6.086;2022-10-15T00:00:29;16.40;99.90
35445;DHT22;21562;49.476;6.086;2022-10-15T00:02:55;16.40;99.90
35445;DHT22;21562;49.476;6.086;2022-10-15T00:05:21;16.60;99.90
35445;DHT22;21562;49.476;6.086;2022-10-15T00:07:47;16.80;99.90
35445;DHT22;21562;49.476;6.086;2022-10-15T00:10:13;16.80;99.90
35445;DHT22;21562;49.476;6.086;2022-10-15T00:12:39;16.90;99.90
35445;DHT22;21562;49.476;6.086;2022-10-15T00:15:06;16.90;99.90
35445;DHT22;21562;49.476;6.086;2022-10-15T00:17:32;17.00;99.90
35445;DHT22;21562;49.476;6.086;2022-10-15T00:19:58;17.00;99.90
35445;DHT22;21562;49.476;6.086;2022-10-15T00:22:24;16.90;99.90
35445;DHT22;21562;49.476;6.086;2022-10-15T00:24:49;16.80;99.90
35445;DHT22;21562;49.476;6.086;2022-10-15T00:27:15;16.90;99.90
35445;DHT22;21562;49.476;6.086;2022-10-15T00:29:41;16.50;99.90
35445;DHT22;21562;49.476;6.086;2022-10-15T00:32:06;16.50;99.90
35445;DHT22;21562;49.476;6.086;2022-10-15T00:34:32;16.40;99.90
35445;DHT22;21562;49.476;6.086;2022-10-15T00:36:58;16.50;99.90
35445;DHT22;21562;49.476;6.086;2022-10-15T00:39:23;16.30;99.90
35445;DHT22;21562;49.476;6.086;2022-10-15T00:41:49;16.30;99.90
35445;DHT22;21562;49.476;6.086;2022-10-15T00:46:48;16.40;99.90
35445;DHT22;21562;49.476;6.086;2022-10-15T00:49:29;16.60;99.90
35445;DHT22;21562;49.476;6.086;2022-10-15T00:52:02;16.60;99.90
35445;DHT22;21562;49.476;6.086;2022-10-15T00:54:31;16.40;99.90
35445;DHT22;21562;49.476;6.086;2022-10-15T00:56:58;16.30;99.90
35445;DHT22;21562;49.476;6.086;2022-10-15T00:59:25;16.50;99.90
35445;DHT22;21562;49.476;6.086;2022-10-15T01:01:52;16.40;99.90
35445;DHT22;21562;49.476;6.086;2022-10-15T01:04:19;16.40;99.90
35445;DHT22;21562;49.476;6.086;2022-10-15T01:06:45;16.60;99.90
35445;DHT22;21562;49.476;6.086;2022-10-15T01:09:11;16.80;99.90
35445;DHT22;21562;49.476;6.086;2022-10-15T01:11:51;16.70;99.90
35445;DHT22;21562;49.476;6.086;2022-10-15T01:22:10;16.50;99.90
35445;DHT22;21562;49.476;6.086;2022-10-15T01:24:44;16.30;99.90
35445;DHT22;21562;49.476;6.086;2022-10-15T01:27:35;16.30;99.90
35445;DHT22;21562;49.476;6.086;2022-10-15T01:33:21;16.60;99.90
35445;DHT22;21562;49.476;6.086;2022-10-15T01:35:51;16.70;99.90
35445;DHT22;21562;49.476;6.086;2022-10-15T01:38:26;16.60;99.90
35445;DHT22;21562;49.476;6.086;2022-10-15T01:41:02;16.60;99.90
35445;DHT22;21562;49.476;6.086;2022-10-15T01:43:47;16.10;99.90
35445;DHT22;21562;49.476;6.086;2022-10-15T01:46:23;16.00;99.90
35445;DHT22;21562;49.476;6.086;2022-10-15T01:48:54;16.00;99.90
35445;DHT22;21562;49.476;6.086;2022-10-15T01:51:22;15.90;99.90
35445;DHT22;21562;49.476;6.086;2022-10-15T01:53:49;16.00;99.90
35445;DHT22;21562;49.476;6.086;2022-10-15T01:56:20;16.10;99.90
35445;DHT22;21562;49.476;6.086;2022-10-15T01:58:48;16.30;99.90
35445;DHT22;21562;49.476;6.086;2022-10-15T02:01:15;16.30;99.90
35445;DHT22;21562;49.476;6.086;2022-10-15T02:03:48;16.20;99.90
35445;DHT22;21562;49.476;6.086;2022-10-15T02:06:20;16.10;99.90
35445;DHT22;21562;49.476;6.086;2022-10-15T02:09:01;16.30;99.90
35445;DHT22;21562;49.476;6.086;2022-10-15T02:11:29;16.50;99.90
35445;DHT22;21562;49.476;6.086;2022-10-15T02:14:04;16.50;99.90
35445;DHT22;21562;49.476;6.086;2022-10-15T02:19:35;16.00;99.90
35445;DHT22;21562;49.476;6.086;2022-10-15T02:24:40;16.00;99.90
35445;DHT22;21562;49.476;6.086;2022-10-15T02:27:08;16.20;99.90
35445;DHT22;21562;49.476;6.086;2022-10-15T02:29:35;16.30;99.90
35445;DHT22;21562;49.476;6.086;2022-10-15T02:32:05;16.40;99.90
35445;DHT22;21562;49.476;6.086;2022-10-15T02:34:32;16.60;99.90
35445;DHT22;21562;49.476;6.086;2022-10-15T02:37:01;16.80;99.90
35445;DHT22;21562;49.476;6.086;2022-10-15T02:39:28;16.70;99.90
35445;DHT22;21562;49.476;6.086;2022-10-15T02:41:54;16.70;99.90
35445;DHT22;21562;49.476;6.086;2022-10-15T02:44:21;16.80;99.90
35445;DHT22;21562;49.476;6.086;2022-10-15T02:46:46;16.80;99.90
35445;DHT22;21562;49.476;6.086;2022-10-15T02:49:12;16.80;99.90
35445;DHT22;21562;49.476;6.086;2022-10-15T02:51:38;16.40;99.90
35445;DHT22;21562;49.476;6.086;2022-10-15T02:54:05;16.30;99.90
35445;DHT22;21562;49.476;6.086;2022-10-15T02:56:31;16.10;99.90
35445;DHT22;21562;49.476;6.086;2022-10-15T02:58:57;15.90;99.90
35445;DHT22;21562;49.476;6.086;2022-10-15T03:01:23;15.60;99.90
35445;DHT22;21562;49.476;6.086;2022-10-15T03:03:48;15.60;99.90
35445;DHT22;21562;49.476;6.086;2022-10-15T03:06:14;15.70;99.90
35445;DHT22;21562;49.476;6.086;2022-10-15T03:08:40;15.70;99.90
35445;DHT22;21562;49.476;6.086;2022-10-15T03:11:09;15.70;99.90
35445;DHT22;21562;49.476;6.086;2022-10-15T03:13:37;15.70;99.90
35445;DHT22;21562;49.476;6.086;2022-10-15T03:16:04;15.90;99.90
35445;DHT22;21562;49.476;6.086;2022-10-15T03:18:30;16.00;99.90
35445;DHT22;21562;49.476;6.086;2022-10-15T03:20:56;15.90;99.90
35445;DHT22;21562;49.476;6.086;2022-10-15T03:23:22;16.00;99.90
35445;DHT22;21562;49.476;6.086;2022-10-15T03:25:48;15.70;99.90
35445;DHT22;21562;49.476;6.086;2022-10-15T03:28:13;15.60;99.90
35445;DHT22;21562;49.476;6.086;2022-10-15T03:30:39;15.60;99.90
35445;DHT22;21562;49.476;6.086;2022-10-15T03:33:05;15.70;99.90
35445;DHT22;21562;49.476;6.086;2022-10-15T03:35:30;15.80;99.90
35445;DHT22;21562;49.476;6.086;2022-10-15T03:37:56;15.80;99.90
35445;DHT22;21562;49.476;6.086;2022-10-15T03:40:21;15.80;99.90
35445;DHT22;21562;49.476;6.086;2022-10-15T03:42:50;15.70;99.90
35445;DHT22;21562;49.476;6.086;2022-10-15T03:45:18;15.80;99.90
35445;DHT22;21562;49.476;6.086;2022-10-15T03:47:43;15.60;99.90
35445;DHT22;21562;49.476;6.086;2022-10-15T03:50:09;15.80;99.90
35445;DHT22;21562;49.476;6.086;2022-10-15T03:52:37;15.60;99.90
35445;DHT22;21562;49.476;6.086;2022-10-15T03:55:04;15.60;99.90
35445;DHT22;21562;49.476;6.086;2022-10-15T03:57:29;15.70;99.90
35445;DHT22;21562;49.476;6.086;2022-10-15T03:59:55;15.50;99.90
35445;DHT22;21562;49.476;6.086;2022-10-15T04:02:21;15.40;99.90
35445;DHT22;21562;49.476;6.086;2022-10-15T04:04:46;15.40;99.90
35445;DHT22;21562;49.476;6.086;2022-10-15T04:07:12;15.30;99.90
35445;DHT22;21562;49.476;6.086;2022-10-15T04:09:38;15.20;99.90
35445;DHT22;21562;49.476;6.086;2022-10-15T04:12:03;15.20;99.90
35445;DHT22;21562;49.476;6.086;2022-10-15T04:14:29;15.20;99.90
35445;DHT22;21562;49.476;6.086;2022-10-15T04:16:55;15.30;99.90
35445;DHT22;21562;49.476;6.086;2022-10-15T04:19:23;15.20;99.90
35445;DHT22;21562;49.476;6.086;2022-10-15T04:21:49;15.20;99.90
35445;DHT22;21562;49.476;6.086;2022-10-15T04:24:15;15.20;99.90
35445;DHT22;21562;49.476;6.086;2022-10-15T04:26:40;15.20;99.90
35445;DHT22;21562;49.476;6.086;2022-10-15T04:29:06;15.20;99.90
35445;DHT22;21562;49.476;6.086;2022-10-15T04:31:32;15.30;99.90
35445;DHT22;21562;49.476;6.086;2022-10-15T04:33:58;15.30;99.90
35445;DHT22;21562;49.476;6.086;2022-10-15T04:36:24;15.00;99.90
35445;DHT22;21562;49.476;6.086;2022-10-15T04:38:49;15.10;99.90
35445;DHT22;21562;49.476;6.086;2022-10-15T04:41:16;15.10;99.90
35445;DHT22;21562;49.476;6.086;2022-10-15T04:43:42;15.10;99.90
35445;DHT22;21562;49.476;6.086;2022-10-15T04:46:08;15.10;99.90
35445;DHT22;21562;49.476;6.086;2022-10-15T04:48:35;15.30;99.90
35445;DHT22;21562;49.476;6.086;2022-10-15T04:51:12;15.60;99.90
35445;DHT22;21562;49.476;6.086;2022-10-15T04:53:38;15.80;99.90
35445;DHT22;21562;49.476;6.086;2022-10-15T04:56:06;16.00;99.90
35445;DHT22;21562;49.476;6.086;2022-10-15T04:58:34;16.00;99.90
35445;DHT22;21562;49.476;6.086;2022-10-15T05:01:01;16.00;99.90
35445;DHT22;21562;49.476;6.086;2022-10-15T05:03:29;15.90;99.90
35445;DHT22;21562;49.476;6.086;2022-10-15T05:06:02;16.10;99.90
35445;DHT22;21562;49.476;6.086;2022-10-15T05:08:29;16.20;99.90
35445;DHT22;21562;49.476;6.086;2022-10-15T05:11:02;16.30;99.90
35445;DHT22;21562;49.476;6.086;2022-10-15T05:13:30;16.30;99.90
35445;DHT22;21562;49.476;6.086;2022-10-15T05:15:56;16.10;99.90
35445;DHT22;21562;49.476;6.086;2022-10-15T05:18:22;16.10;99.90
35445;DHT22;21562;49.476;6.086;2022-10-15T05:20:47;16.00;99.90
35445;DHT22;21562;49.476;6.086;2022-10-15T05:23:13;16.00;99.90
35445;DHT22;21562;49.476;6.086;2022-10-15T05:25:39;16.10;99.90
35445;DHT22;21562;49.476;6.086;2022-10-15T05:28:04;16.30;99.90
35445;DHT22;21562;49.476;6.086;2022-10-15T05:30:31;16.30;99.90
35445;DHT22;21562;49.476;6.086;2022-10-15T05:32:57;16.50;99.90
35445;DHT22;21562;49.476;6.086;2022-10-15T05:35:23;16.50;99.90
35445;DHT22;21562;49.476;6.086;2022-10-15T05:37:49;16.50;99.90
35445;DHT22;21562;49.476;6.086;2022-10-15T05:40:14;16.50;99.90
35445;DHT22;21562;49.476;6.086;2022-10-15T05:42:40;16.50;99.90
35445;DHT22;21562;49.476;6.086;2022-10-15T05:45:06;16.70;99.90
35445;DHT22;21562;49.476;6.086;2022-10-15T05:47:32;16.60;99.90
35445;DHT22;21562;49.476;6.086;2022-10-15T05:49:58;16.60;99.90
35445;DHT22;21562;49.476;6.086;2022-10-15T05:52:23;16.50;99.90
35445;DHT22;21562;49.476;6.086;2022-10-15T05:54:49;16.50;99.90
35445;DHT22;21562;49.476;6.086;2022-10-15T05:57:14;16.60;99.90
35445;DHT22;21562;49.476;6.086;2022-10-15T05:59:40;16.80;99.90
35445;DHT22;21562;49.476;6.086;2022-10-15T06:02:07;17.00;99.90
35445;DHT22;21562;49.476;6.086;2022-10-15T06:04:33;17.10;99.90
35445;DHT22;21562;49.476;6.086;2022-10-15T06:06:58;17.20;99.90
35445;DHT22;21562;49.476;6.086;2022-10-15T06:09:24;17.20;99.90
35445;DHT22;21562;49.476;6.086;2022-10-15T06:11:49;17.30;99.90
35445;DHT22;21562;49.476;6.086;2022-10-15T06:14:15;17.30;99.90
35445;DHT22;21562;49.476;6.086;2022-10-15T06:16:41;17.10;99.90
35445;DHT22;21562;49.476;6.086;2022-10-15T06:19:06;17.30;99.90
35445;DHT22;21562;49.476;6.086;2022-10-15T06:21:32;17.40;99.90
35445;DHT22;21562;49.476;6.086;2022-10-15T06:23:58;17.30;99.90
35445;DHT22;21562;49.476;6.086;2022-10-15T06:26:23;17.20;99.90
35445;DHT22;21562;49.476;6.086;2022-10-15T06:28:49;17.10;99.90
35445;DHT22;21562;49.476;6.086;2022-10-15T06:31:15;17.10;99.90
35445;DHT22;21562;49.476;6.086;2022-10-15T06:33:40;17.30;99.90
35445;DHT22;21562;49.476;6.086;2022-10-15T06:36:08;17.20;99.90
35445;DHT22;21562;49.476;6.086;2022-10-15T06:38:34;17.20;99.90
35445;DHT22;21562;49.476;6.086;2022-10-15T06:41:05;17.30;99.90
35445;DHT22;21562;49.476;6.086;2022-10-15T06:43:31;17.20;99.90
35445;DHT22;21562;49.476;6.086;2022-10-15T06:45:58;17.30;99.90
35445;DHT22;21562;49.476;6.086;2022-10-15T06:48:24;17.10;99.90
35445;DHT22;21562;49.476;6.086;2022-10-15T06:50:50;17.20;99.90
35445;DHT22;21562;49.476;6.086;2022-10-15T06:53:16;17.30;99.90
35445;DHT22;21562;49.476;6.086;2022-10-15T06:55:42;17.60;99.90
35445;DHT22;21562;49.476;6.086;2022-10-15T06:58:08;17.60;99.90
35445;DHT22;21562;49.476;6.086;2022-10-15T07:00:33;17.50;99.90
35445;DHT22;21562;49.476;6.086;2022-10-15T07:03:06;17.50;99.90
35445;DHT22;21562;49.476;6.086;2022-10-15T07:05:33;17.60;99.90
35445;DHT22;21562;49.476;6.086;2022-10-15T07:07:59;17.60;99.90
35445;DHT22;21562;49.476;6.086;2022-10-15T07:10:26;17.70;99.90
35445;DHT22;21562;49.476;6.086;2022-10-15T07:12:52;17.90;99.90
35445;DHT22;21562;49.476;6.086;2022-10-15T07:15:19;17.90;99.90
35445;DHT22;21562;49.476;6.086;2022-10-15T07:17:55;18.00;99.90
35445;DHT22;21562;49.476;6.086;2022-10-15T07:20:22;18.00;99.90
35445;DHT22;21562;49.476;6.086;2022-10-15T07:22:48;17.90;99.90
35445;DHT22;21562;49.476;6.086;2022-10-15T07:25:14;17.80;99.90
35445;DHT22;21562;49.476;6.086;2022-10-15T07:27:39;17.80;99.90
35445;DHT22;21562;49.476;6.086;2022-10-15T07:30:06;17.40;99.90
35445;DHT22;21562;49.476;6.086;2022-10-15T07:32:33;17.10;99.90
35445;DHT22;21562;49.476;6.086;2022-10-15T07:34:58;17.30;99.90
35445;DHT22;21562;49.476;6.086;2022-10-15T07:37:24;17.50;99.90
35445;DHT22;21562;49.476;6.086;2022-10-15T07:39:50;17.30;99.90
35445;DHT22;21562;49.476;6.086;2022-10-15T07:42:15;17.00;99.90
35445;DHT22;21562;49.476;6.086;2022-10-15T07:44:41;16.90;99.90
35445;DHT22;21562;49.476;6.086;2022-10-15T07:47:06;16.90;99.90
35445;DHT22;21562;49.476;6.086;2022-10-15T07:49:32;17.00;99.90
35445;DHT22;21562;49.476;6.086;2022-10-15T07:51:58;17.10;99.90
35445;DHT22;21562;49.476;6.086;2022-10-15T07:54:24;16.80;99.90
35445;DHT22;21562;49.476;6.086;2022-10-15T07:56:49;17.00;99.90
35445;DHT22;21562;49.476;6.086;2022-10-15T07:59:15;17.00;99.90
35445;DHT22;21562;49.476;6.086;2022-10-15T08:01:41;17.10;99.90
35445;DHT22;21562;49.476;6.086;2022-10-15T08:04:06;16.90;99.90
35445;DHT22;21562;49.476;6.086;2022-10-15T08:06:32;16.90;99.90
35445;DHT22;21562;49.476;6.086;2022-10-15T08:08:58;16.90;99.90
35445;DHT22;21562;49.476;6.086;2022-10-15T08:11:23;16.80;99.90
35445;DHT22;21562;49.476;6.086;2022-10-15T08:13:51;16.60;99.90
35445;DHT22;21562;49.476;6.086;2022-10-15T08:16:17;16.60;99.90
35445;DHT22;21562;49.476;6.086;2022-10-15T08:18:44;16.50;99.90
35445;DHT22;21562;49.476;6.086;2022-10-15T08:21:11;16.70;99.90
35445;DHT22;21562;49.476;6.086;2022-10-15T08:23:36;16.70;99.90
35445;DHT22;21562;49.476;6.086;2022-10-15T08:26:02;16.70;99.90
35445;DHT22;21562;49.476;6.086;2022-10-15T08:28:28;16.70;99.90
35445;DHT22;21562;49.476;6.086;2022-10-15T08:30:58;16.50;99.90
35445;DHT22;21562;49.476;6.086;2022-10-15T08:33:25;16.60;99.90
35445;DHT22;21562;49.476;6.086;2022-10-15T08:35:51;16.50;99.90
35445;DHT22;21562;49.476;6.086;2022-10-15T08:38:17;16.60;99.90
35445;DHT22;21562;49.476;6.086;2022-10-15T08:40:51;16.80;99.90
35445;DHT22;21562;49.476;6.086;2022-10-15T08:45:54;16.90;99.90
35445;DHT22;21562;49.476;6.086;2022-10-15T08:48:31;16.80;99.90
35445;DHT22;21562;49.476;6.086;2022-10-15T08:51:13;16.90;99.90
35445;DHT22;21562;49.476;6.086;2022-10-15T08:53:51;17.00;99.90
35445;DHT22;21562;49.476;6.086;2022-10-15T08:56:29;16.80;99.90
35445;DHT22;21562;49.476;6.086;2022-10-15T09:02:17;16.40;99.90
35445;DHT22;21562;49.476;6.086;2022-10-15T09:08:20;16.40;99.90
35445;DHT22;21562;49.476;6.086;2022-10-15T09:13:06;16.60;99.90
35445;DHT22;21562;49.476;6.086;2022-10-15T09:15:40;16.70;99.90
35445;DHT22;21562;49.476;6.086;2022-10-15T09:18:17;16.70;99.90
35445;DHT22;21562;49.476;6.086;2022-10-15T09:20:45;16.60;99.90
35445;DHT22;21562;49.476;6.086;2022-10-15T09:23:25;16.70;99.90
35445;DHT22;21562;49.476;6.086;2022-10-15T09:31:27;16.40;99.90
35445;DHT22;21562;49.476;6.086;2022-10-15T09:36:54;16.40;99.90
35445;DHT22;21562;49.476;6.086;2022-10-15T09:44:39;16.30;99.90
35445;DHT22;21562;49.476;6.086;2022-10-15T09:47:19;16.20;99.90
35445;DHT22;21562;49.476;6.086;2022-10-15T09:49:47;16.50;99.90
35445;DHT22;21562;49.476;6.086;2022-10-15T09:54:48;16.60;99.90
35445;DHT22;21562;49.476;6.086;2022-10-15T09:57:16;16.50;99.90
35445;DHT22;21562;49.476;6.086;2022-10-15T09:59:58;16.50;99.90
35445;DHT22;21562;49.476;6.086;2022-10-15T10:02:26;16.50;99.90
35445;DHT22;21562;49.476;6.086;2022-10-15T10:04:52;16.50;99.90
35445;DHT22;21562;49.476;6.086;2022-10-15T10:10:04;16.70;99.90
35445;DHT22;21562;49.476;6.086;2022-10-15T10:12:33;16.60;99.90
35445;DHT22;21562;49.476;6.086;2022-10-15T10:17:29;16.80;99.90
35445;DHT22;21562;49.476;6.086;2022-10-15T10:20:14;16.90;99.90
35445;DHT22;21562;49.476;6.086;2022-10-15T10:22:56;16.80;99.90
35445;DHT22;21562;49.476;6.086;2022-10-15T10:27:55;16.90;99.90
35445;DHT22;21562;49.476;6.086;2022-10-15T10:30:21;16.70;99.90
35445;DHT22;21562;49.476;6.086;2022-10-15T10:32:47;16.70;99.90
35445;DHT22;21562;49.476;6.086;2022-10-15T10:35:23;16.90;99.90
35445;DHT22;21562;49.476;6.086;2022-10-15T10:37:50;17.00;99.90
35445;DHT22;21562;49.476;6.086;2022-10-15T10:40:33;17.10;99.90
35445;DHT22;21562;49.476;6.086;2022-10-15T10:45:52;16.80;99.90
35445;DHT22;21562;49.476;6.086;2022-10-15T10:48:20;16.70;99.90
35445;DHT22;21562;49.476;6.086;2022-10-15T10:50:46;16.80;99.90
35445;DHT22;21562;49.476;6.086;2022-10-15T10:53:23;17.00;99.90
35445;DHT22;21562;49.476;6.086;2022-10-15T10:55:51;17.20;99.90
35445;DHT22;21562;49.476;6.086;2022-10-15T10:58:21;17.40;99.90
35445;DHT22;21562;49.476;6.086;2022-10-15T11:00:49;17.40;99.90
35445;DHT22;21562;49.476;6.086;2022-10-15T11:06:04;17.30;99.90
35445;DHT22;21562;49.476;6.086;2022-10-15T11:09:12;17.20;99.90
35445;DHT22;21562;49.476;6.086;2022-10-15T11:20:29;16.90;99.90
35445;DHT22;21562;49.476;6.086;2022-10-15T11:37:01;17.10;99.90
35445;DHT22;21562;49.476;6.086;2022-10-15T11:40:13;17.10;99.90
35445;DHT22;21562;49.476;6.086;2022-10-15T11:42:58;17.10;99.90
35445;DHT22;21562;49.476;6.086;2022-10-15T11:45:54;17.10;99.90
35445;DHT22;21562;49.476;6.086;2022-10-15T11:51:27;17.10;99.90
35445;DHT22;21562;49.476;6.086;2022-10-15T11:54:01;17.10;99.90
35445;DHT22;21562;49.476;6.086;2022-10-15T11:56:47;17.00;99.90
35445;DHT22;21562;49.476;6.086;2022-10-15T12:02:05;17.20;99.90
35445;DHT22;21562;49.476;6.086;2022-10-15T12:04:44;17.40;99.90
35445;DHT22;21562;49.476;6.086;2022-10-15T12:07:19;17.20;99.90
35445;DHT22;21562;49.476;6.086;2022-10-15T12:09:50;17.10;99.90
35445;DHT22;21562;49.476;6.086;2022-10-15T12:12:48;17.20;99.90
35445;DHT22;21562;49.476;6.086;2022-10-15T12:20:58;17.20;99.90
35445;DHT22;21562;49.476;6.086;2022-10-15T12:23:44;17.40;99.90
35445;DHT22;21562;49.476;6.086;2022-10-15T12:26:28;17.50;99.90
35445;DHT22;21562;49.476;6.086;2022-10-15T12:28:57;17.50;99.90
35445;DHT22;21562;49.476;6.086;2022-10-15T12:31:23;17.40;99.90
35445;DHT22;21562;49.476;6.086;2022-10-15T12:33:56;17.50;99.90
35445;DHT22;21562;49.476;6.086;2022-10-15T12:36:24;17.70;99.90
35445;DHT22;21562;49.476;6.086;2022-10-15T12:39:04;17.80;99.90
35445;DHT22;21562;49.476;6.086;2022-10-15T12:41:37;17.60;99.90
35445;DHT22;21562;49.476;6.086;2022-10-15T12:44:26;17.60;99.90
35445;DHT22;21562;49.476;6.086;2022-10-15T12:46:53;17.60;99.90
35445;DHT22;21562;49.476;6.086;2022-10-15T12:51:55;17.60;99.90
35445;DHT22;21562;49.476;6.086;2022-10-15T12:54:41;17.80;99.90
35445;DHT22;21562;49.476;6.086;2022-10-15T13:02:51;17.70;99.90
35445;DHT22;21562;49.476;6.086;2022-10-15T13:05:29;17.50;99.90
35445;DHT22;21562;49.476;6.086;2022-10-15T13:07:58;17.60;99.90
35445;DHT22;21562;49.476;6.086;2022-10-15T13:10:39;17.60;99.90
35445;DHT22;21562;49.476;6.086;2022-10-15T13:13:12;17.70;99.90
35445;DHT22;21562;49.476;6.086;2022-10-15T13:15:39;17.70;99.90
35445;DHT22;21562;49.476;6.086;2022-10-15T13:18:10;17.50;99.90
35445;DHT22;21562;49.476;6.086;2022-10-15T13:20:38;17.40;99.90
35445;DHT22;21562;49.476;6.086;2022-10-15T13:23:26;17.40;99.90
35445;DHT22;21562;49.476;6.086;2022-10-15T13:26:16;17.40;99.90
35445;DHT22;21562;49.476;6.086;2022-10-15T13:28:43;17.50;99.90
35445;DHT22;21562;49.476;6.086;2022-10-15T13:33:51;17.90;99.90
35445;DHT22;21562;49.476;6.086;2022-10-15T13:36:21;17.80;99.90
35445;DHT22;21562;49.476;6.086;2022-10-15T13:39:00;17.60;99.90
35445;DHT22;21562;49.476;6.086;2022-10-15T13:41:30;17.50;99.90
35445;DHT22;21562;49.476;6.086;2022-10-15T13:43:57;17.70;99.90
35445;DHT22;21562;49.476;6.086;2022-10-15T13:46:36;17.60;99.90
35445;DHT22;21562;49.476;6.086;2022-10-15T13:49:10;17.70;99.90
35445;DHT22;21562;49.476;6.086;2022-10-15T13:51:47;17.90;99.90
35445;DHT22;21562;49.476;6.086;2022-10-15T13:54:26;17.80;99.90
35445;DHT22;21562;49.476;6.086;2022-10-15T13:56:58;17.70;99.90
35445;DHT22;21562;49.476;6.086;2022-10-15T13:59:26;17.80;99.90
35445;DHT22;21562;49.476;6.086;2022-10-15T14:02:00;18.00;99.90
35445;DHT22;21562;49.476;6.086;2022-10-15T14:04:31;17.90;99.90
35445;DHT22;21562;49.476;6.086;2022-10-15T14:11:54;17.80;99.90
35445;DHT22;21562;49.476;6.086;2022-10-15T14:14:28;18.00;99.90
35445;DHT22;21562;49.476;6.086;2022-10-15T14:16:54;17.90;99.90
35445;DHT22;21562;49.476;6.086;2022-10-15T14:19:21;17.80;99.90
35445;DHT22;21562;49.476;6.086;2022-10-15T14:21:56;17.90;99.90
35445;DHT22;21562;49.476;6.086;2022-10-15T14:27:07;17.50;99.90
35445;DHT22;21562;49.476;6.086;2022-10-15T14:29:48;17.50;99.90
35445;DHT22;21562;49.476;6.086;2022-10-15T14:32:26;17.80;99.90
35445;DHT22;21562;49.476;6.086;2022-10-15T14:34:55;18.00;99.90
35445;DHT22;21562;49.476;6.086;2022-10-15T14:37:41;18.00;99.90
35445;DHT22;21562;49.476;6.086;2022-10-15T14:42:33;17.60;99.90
35445;DHT22;21562;49.476;6.086;2022-10-15T14:45:26;17.40;99.90
35445;DHT22;21562;49.476;6.086;2022-10-15T14:47:57;17.50;99.90
35445;DHT22;21562;49.476;6.086;2022-10-15T14:50:30;17.60;99.90
35445;DHT22;21562;49.476;6.086;2022-10-15T14:52:58;17.70;99.90
35445;DHT22;21562;49.476;6.086;2022-10-15T14:55:28;17.60;99.90
35445;DHT22;21562;49.476;6.086;2022-10-15T14:58:07;17.40;99.90
35445;DHT22;21562;49.476;6.086;2022-10-15T15:00:39;17.10;99.90
35445;DHT22;21562;49.476;6.086;2022-10-15T15:03:06;17.30;99.90
35445;DHT22;21562;49.476;6.086;2022-10-15T15:05:50;17.20;99.90
35445;DHT22;21562;49.476;6.086;2022-10-15T15:08:17;17.10;99.90
35445;DHT22;21562;49.476;6.086;2022-10-15T15:10:43;17.10;99.90
35445;DHT22;21562;49.476;6.086;2022-10-15T15:13:29;17.10;99.90
35445;DHT22;21562;49.476;6.086;2022-10-15T15:15:55;17.20;99.90
35445;DHT22;21562;49.476;6.086;2022-10-15T15:18:21;17.20;99.90
35445;DHT22;21562;49.476;6.086;2022-10-15T15:20:48;17.30;99.90
35445;DHT22;21562;49.476;6.086;2022-10-15T15:23:18;17.10;99.90
35445;DHT22;21562;49.476;6.086;2022-10-15T15:25:44;17.10;99.90
35445;DHT22;21562;49.476;6.086;2022-10-15T15:28:13;17.10;99.90
35445;DHT22;21562;49.476;6.086;2022-10-15T15:30:41;17.10;99.90
35445;DHT22;21562;49.476;6.086;2022-10-15T15:33:11;17.20;99.90
35445;DHT22;21562;49.476;6.086;2022-10-15T15:35:47;17.50;99.90
35445;DHT22;21562;49.476;6.086;2022-10-15T15:38:22;17.60;99.90
35445;DHT22;21562;49.476;6.086;2022-10-15T15:40:48;17.50;99.90
35445;DHT22;21562;49.476;6.086;2022-10-15T15:43:16;17.50;99.90
35445;DHT22;21562;49.476;6.086;2022-10-15T15:45:42;17.40;99.90
35445;DHT22;21562;49.476;6.086;2022-10-15T15:48:08;17.60;99.90
35445;DHT22;21562;49.476;6.086;2022-10-15T15:50:35;17.80;99.90
35445;DHT22;21562;49.476;6.086;2022-10-15T15:53:01;18.10;99.90
35445;DHT22;21562;49.476;6.086;2022-10-15T15:55:27;18.30;99.90
35445;DHT22;21562;49.476;6.086;2022-10-15T15:57:53;18.30;99.90
35445;DHT22;21562;49.476;6.086;2022-10-15T16:00:19;18.00;99.90
35445;DHT22;21562;49.476;6.086;2022-10-15T16:02:44;18.10;99.90
35445;DHT22;21562;49.476;6.086;2022-10-15T16:05:13;18.10;99.90
35445;DHT22;21562;49.476;6.086;2022-10-15T16:07:39;18.20;99.90
35445;DHT22;21562;49.476;6.086;2022-10-15T16:10:05;18.30;99.90
35445;DHT22;21562;49.476;6.086;2022-10-15T16:12:33;18.90;99.90
35445;DHT22;21562;49.476;6.086;2022-10-15T16:14:59;19.10;99.90
35445;DHT22;21562;49.476;6.086;2022-10-15T16:17:25;19.20;99.90
35445;DHT22;21562;49.476;6.086;2022-10-15T16:19:51;19.30;99.90
35445;DHT22;21562;49.476;6.086;2022-10-15T16:22:17;19.50;99.90
35445;DHT22;21562;49.476;6.086;2022-10-15T16:24:42;19.50;99.90
35445;DHT22;21562;49.476;6.086;2022-10-15T16:27:08;19.30;99.90
35445;DHT22;21562;49.476;6.086;2022-10-15T16:29:34;19.00;99.90
35445;DHT22;21562;49.476;6.086;2022-10-15T16:31:59;18.60;99.90
35445;DHT22;21562;49.476;6.086;2022-10-15T16:34:25;18.30;99.90
35445;DHT22;21562;49.476;6.086;2022-10-15T16:36:51;18.00;99.90
35445;DHT22;21562;49.476;6.086;2022-10-15T16:39:16;18.20;99.90
35445;DHT22;21562;49.476;6.086;2022-10-15T16:41:42;18.30;99.90
35445;DHT22;21562;49.476;6.086;2022-10-15T16:44:08;18.20;99.90
35445;DHT22;21562;49.476;6.086;2022-10-15T16:46:34;18.10;99.90
35445;DHT22;21562;49.476;6.086;2022-10-15T16:48:59;18.30;99.90
35445;DHT22;21562;49.476;6.086;2022-10-15T16:51:25;18.40;99.90
35445;DHT22;21562;49.476;6.086;2022-10-15T16:53:52;18.70;99.90
35445;DHT22;21562;49.476;6.086;2022-10-15T16:56:19;18.80;99.90
35445;DHT22;21562;49.476;6.086;2022-10-15T16:58:46;18.80;99.90
35445;DHT22;21562;49.476;6.086;2022-10-15T17:01:23;18.90;99.90
35445;DHT22;21562;49.476;6.086;2022-10-15T17:03:49;18.90;99.90
35445;DHT22;21562;49.476;6.086;2022-10-15T17:06:18;18.70;99.90
35445;DHT22;21562;49.476;6.086;2022-10-15T17:08:45;18.80;99.90
35445;DHT22;21562;49.476;6.086;2022-10-15T17:11:13;18.40;99.90
35445;DHT22;21562;49.476;6.086;2022-10-15T17:13:39;18.20;99.90
35445;DHT22;21562;49.476;6.086;2022-10-15T17:16:17;18.30;99.90
35445;DHT22;21562;49.476;6.086;2022-10-15T17:18:44;18.50;99.90
35445;DHT22;21562;49.476;6.086;2022-10-15T17:21:12;18.60;99.90
35445;DHT22;21562;49.476;6.086;2022-10-15T17:23:38;18.10;99.90
35445;DHT22;21562;49.476;6.086;2022-10-15T17:26:12;17.80;99.90
35445;DHT22;21562;49.476;6.086;2022-10-15T17:28:38;17.60;99.90
35445;DHT22;21562;49.476;6.086;2022-10-15T17:31:10;17.70;99.90
35445;DHT22;21562;49.476;6.086;2022-10-15T17:33:37;17.40;99.90
35445;DHT22;21562;49.476;6.086;2022-10-15T17:36:11;17.40;99.90
35445;DHT22;21562;49.476;6.086;2022-10-15T17:38:37;17.50;99.90